Date,TemperatureHighF,TemperatureAvgF,TemperatureLowF,DewpointHighF,DewpointAvgF,DewpointLowF,HumidityHigh,HumidityAvg,HumidityLow,PressureMaxIn,PressureMinIn,WindSpeedMaxMPH,WindSpeedAvgMPH,GustSpeedMaxMPH,PrecipitationSumIn
2013-4-1,62,46,36,45,35,7,97,70,27,29.86,29.56,9,2,14,0.01
2013-4-2,42,36,31,16,10,4,54,35,24,30.04,29.86,10,4,17,0.00
2013-4-3,44,37,31,15,11,6,51,35,23,30.26,30.03,9,4,14,0.00
2013-4-4,54,40,29,32,19,11,71,45,24,30.35,30.05,5,1,15,0.00
2013-4-5,62,48,39,28,22,12,61,39,19,30.05,29.68,7,2,14,0.00
2013-4-6,52,41,34,28,10,-100,67,33,14,30.27,29.96,7,-13,13,0.00
2013-4-7,54,45,34,43,33,22,86,64,37,30.27,29.96,9,3,18,0.00
2013-4-8,74,56,40,45,40,34,94,61,24,30.04,29.94,5,1,8,0.00
2013-4-9,79,62,50,53,36,-100,87,49,22,29.96,29.86,10,-32,13,0.00
2013-4-10,71,58,52,55,42,-100,95,64,39,29.93,29.77,5,-43,14,0.81
2013-4-11,57,33,57,56,-43,-100,96,35,96,29.81,29.75,1,-272,2,0.02
2013-4-12,46,42,39,40,36,30,94,80,55,30.01,29.70,10,3,28,0.80
2013-4-13,56,47,38,39,35,31,94,67,40,29.92,29.73,5,1,9,0.09
2013-4-14,54,50,44,38,28,22,66,45,30,30.19,29.92,7,2,14,0.00
2013-4-15,58,47,37,35,30,24,77,53,34,30.34,30.19,5,1,11,0.00
2013-4-16,63,53,44,52,45,35,84,74,60,30.34,30.08,7,2,16,0.00
2013-4-17,69,60,51,54,40,29,87,52,25,30.25,30.07,6,1,10,0.00
2013-4-18,59,53,46,48,40,33,86,64,38,30.31,30.11,6,2,12,0.00
2013-4-19,71,62,54,61,58,52,97,87,66,30.06,29.60,7,3,24,0.27
2013-4-20,62,52,43,61,35,21,95,57,27,30.27,29.63,6,3,17,0.37
2013-4-21,54,44,33,28,19,15,62,39,22,30.59,30.28,5,1,16,0.00
2013-4-22,54,45,35,35,28,19,83,55,27,30.64,30.48,7,2,22,0.00
2013-4-23,52,44,38,40,35,29,87,73,62,30.48,30.08,6,2,11,0.00
2013-4-24,70,52,37,49,43,34,93,73,43,30.08,29.79,8,2,12,0.00
2013-4-25,65,54,46,51,30,16,91,44,16,30.22,29.82,9,2,13,0.00
2013-4-26,66,52,36,35,30,23,89,49,21,30.38,30.22,4,1,12,0.00
2013-4-27,70,55,38,34,27,16,75,39,15,30.39,30.23,4,1,8,0.00
2013-4-28,69,55,39,43,35,24,85,51,24,30.28,30.17,5,1,8,0.00
2013-4-29,56,54,52,48,44,36,86,71,52,30.20,30.16,3,0,8,0.05
2013-4-30,67,57,47,44,35,22,75,48,20,30.30,30.18,5,1,10,0.00